createdAt,value
2023-01-25T00:01:35.593Z,29.15
2023-01-25T00:04:02.231Z,27.70
2023-01-25T00:06:28.971Z,30.85
2023-01-25T00:08:59.142Z,26.05
2023-01-25T00:11:25.820Z,31.80
2023-01-25T00:13:57.677Z,27.77
2023-01-25T00:16:24.737Z,25.90
2023-01-25T00:18:51.600Z,25.23
2023-01-25T00:21:25.114Z,22.25
2023-01-25T00:26:35.098Z,25.60
2023-01-25T00:29:03.056Z,25.33
2023-01-25T00:31:55.511Z,24.20
2023-01-25T00:34:30.036Z,28.42
2023-01-25T00:37:14.735Z,30.92
2023-01-25T00:39:41.739Z,25.35
2023-01-25T00:42:12.482Z,26.50
2023-01-25T00:44:39.893Z,26.05
2023-01-25T00:47:06.924Z,23.98
2023-01-25T00:49:33.844Z,29.55
2023-01-25T00:52:00.679Z,25.83
2023-01-25T00:54:27.432Z,31.38
2023-01-25T00:56:56.520Z,28.00
2023-01-25T00:59:24.994Z,28.23
2023-01-25T01:01:53.400Z,23.90
2023-01-25T01:04:21.288Z,24.73
2023-01-25T01:06:48.068Z,23.05
2023-01-25T01:09:16.971Z,27.88
2023-01-25T01:11:44.406Z,25.55
2023-01-25T01:16:36.787Z,26.95
2023-01-25T01:19:03.939Z,25.27
2023-01-25T01:21:30.735Z,26.73
2023-01-25T01:23:57.782Z,23.25
2023-01-25T01:26:24.643Z,25.40
2023-01-25T01:28:51.791Z,25.65
2023-01-25T01:31:22.003Z,27.25
2023-01-25T01:33:50.563Z,24.73
2023-01-25T01:36:19.835Z,24.92
2023-01-25T01:38:46.950Z,24.65
2023-01-25T01:41:14.231Z,28.55
2023-01-25T01:43:41.799Z,27.13
2023-01-25T01:46:13.126Z,22.50
2023-01-25T01:49:03.162Z,24.38
2023-01-25T01:51:48.003Z,27.67
2023-01-25T01:54:45.541Z,28.73
2023-01-25T01:57:18.598Z,24.27
2023-01-25T02:00:01.767Z,27.05
2023-01-25T02:02:28.613Z,25.60
2023-01-25T02:05:00.328Z,29.90
2023-01-25T02:07:35.031Z,28.02
2023-01-25T02:10:04.733Z,24.38
2023-01-25T02:12:32.224Z,27.13
2023-01-25T02:14:58.959Z,27.00
2023-01-25T02:17:29.884Z,34.33
2023-01-25T02:20:12.501Z,24.20
2023-01-25T02:23:00.092Z,24.00
2023-01-25T02:28:07.457Z,27.98
2023-01-25T02:30:35.031Z,24.70
2023-01-25T02:33:01.841Z,24.55
2023-01-25T02:35:40.477Z,27.17
2023-01-25T02:38:08.491Z,25.02
2023-01-25T02:40:44.900Z,25.08
2023-01-25T02:43:12.462Z,26.20
2023-01-25T02:45:39.163Z,23.60
2023-01-25T02:48:09.398Z,27.00
2023-01-25T02:50:36.114Z,29.38
2023-01-25T02:53:02.842Z,29.00
2023-01-25T02:55:29.536Z,29.73
2023-01-25T02:57:56.280Z,24.52
2023-01-25T03:00:23.809Z,32.50
2023-01-25T03:02:50.518Z,26.83
2023-01-25T03:05:17.208Z,24.63
2023-01-25T03:07:43.979Z,30.30
2023-01-25T03:12:37.583Z,25.75
2023-01-25T03:15:05.015Z,30.83
2023-01-25T03:17:31.906Z,29.33
2023-01-25T03:19:58.582Z,29.38
2023-01-25T03:22:25.922Z,30.80
2023-01-25T03:24:52.772Z,28.63
2023-01-25T03:27:19.691Z,20.60
2023-01-25T03:29:46.556Z,30.80
2023-01-25T03:32:13.450Z,33.28
2023-01-25T03:34:40.200Z,30.75
2023-01-25T03:37:07.074Z,30.88
2023-01-25T03:39:33.751Z,26.95
2023-01-25T03:42:00.422Z,32.15
2023-01-25T03:44:27.250Z,26.13
2023-01-25T03:46:56.794Z,30.80
2023-01-25T03:49:23.775Z,30.77
2023-01-25T03:51:50.479Z,31.90
2023-01-25T03:54:17.191Z,28.05
2023-01-25T03:56:43.982Z,29.20
2023-01-25T03:59:12.665Z,31.33
2023-01-25T04:01:39.375Z,33.17
2023-01-25T04:04:06.252Z,27.50
2023-01-25T04:06:33.051Z,27.45
2023-01-25T04:08:59.734Z,25.27
2023-01-25T04:11:26.448Z,29.50
2023-01-25T04:13:53.231Z,30.15
2023-01-25T04:16:20.057Z,28.42
2023-01-25T04:18:46.800Z,27.13
2023-01-25T04:21:13.571Z,26.60
2023-01-25T04:23:40.325Z,29.83
2023-01-25T04:26:09.661Z,29.23
2023-01-25T04:28:36.422Z,33.95
2023-01-25T04:31:03.840Z,28.23
2023-01-25T04:33:30.559Z,26.38
2023-01-25T04:35:57.705Z,29.10
2023-01-25T04:38:24.528Z,26.70
2023-01-25T04:40:52.541Z,30.60
2023-01-25T04:43:20.430Z,26.27
2023-01-25T04:45:47.390Z,26.58
2023-01-25T04:48:14.662Z,24.52
2023-01-25T04:50:43.293Z,27.83
2023-01-25T04:53:11.551Z,26.83
2023-01-25T04:55:38.265Z,30.48
2023-01-25T04:58:05.282Z,31.95
2023-01-25T05:00:32.628Z,35.83
2023-01-25T05:02:59.323Z,31.52
2023-01-25T05:05:29.204Z,25.50
2023-01-25T05:07:56.251Z,33.83
2023-01-25T05:10:23.380Z,32.50
2023-01-25T05:12:50.012Z,37.20
2023-01-25T05:15:16.721Z,28.15
2023-01-25T05:17:43.357Z,33.50
2023-01-25T05:22:37.328Z,33.17
2023-01-25T05:25:06.470Z,33.83
2023-01-25T05:27:33.204Z,29.17
2023-01-25T05:29:59.864Z,34.65
2023-01-25T05:32:26.637Z,33.28
2023-01-25T05:34:53.395Z,30.45
2023-01-25T05:37:23.915Z,32.47
2023-01-25T05:39:50.631Z,33.35
2023-01-25T05:42:18.930Z,29.20
2023-01-25T05:44:47.541Z,32.05
2023-01-25T05:47:16.440Z,29.23
2023-01-25T05:49:43.377Z,30.95
2023-01-25T05:52:12.581Z,42.22
2023-01-25T05:54:39.327Z,33.92
2023-01-25T05:57:06.060Z,31.27
2023-01-25T05:59:32.731Z,30.17
2023-01-25T06:01:59.472Z,32.25
2023-01-25T06:04:26.280Z,36.85
2023-01-25T06:06:53.188Z,37.35
2023-01-25T06:09:20.845Z,30.10
2023-01-25T06:11:47.672Z,35.05
2023-01-25T06:14:14.522Z,39.60
2023-01-25T06:16:42.124Z,33.58
2023-01-25T06:19:12.889Z,34.95
2023-01-25T06:21:39.589Z,34.80
2023-01-25T06:24:06.693Z,37.10
2023-01-25T06:26:33.435Z,34.92
2023-01-25T06:29:00.150Z,42.60
2023-01-25T06:31:26.950Z,32.95
2023-01-25T06:33:53.871Z,36.42
2023-01-25T06:36:22.685Z,42.42
2023-01-25T06:38:53.032Z,36.67
2023-01-25T06:41:20.829Z,37.97
2023-01-25T06:43:50.053Z,35.60
2023-01-25T06:46:17.174Z,39.78
2023-01-25T06:48:43.997Z,38.85
2023-01-25T06:51:15.725Z,37.53
2023-01-25T06:53:45.600Z,38.28
2023-01-25T06:56:17.896Z,38.33
2023-01-25T06:58:45.065Z,37.20
2023-01-25T07:01:13.147Z,42.22
2023-01-25T07:03:40.428Z,38.28
2023-01-25T07:06:09.850Z,42.33
2023-01-25T07:08:37.283Z,37.95
2023-01-25T07:11:06.596Z,40.33
2023-01-25T07:13:34.739Z,40.15
2023-01-25T07:16:08.814Z,41.00
2023-01-25T07:18:38.880Z,40.13
2023-01-25T07:21:08.263Z,40.92
2023-01-25T07:23:35.449Z,36.67
2023-01-25T07:26:02.298Z,39.67
2023-01-25T07:28:28.928Z,38.78
2023-01-25T07:30:55.614Z,40.53
2023-01-25T07:33:22.411Z,42.80
2023-01-25T07:35:51.072Z,41.17
2023-01-25T07:38:17.934Z,40.65
2023-01-25T07:40:44.701Z,44.20
2023-01-25T07:45:37.795Z,40.88
2023-01-25T07:50:37.470Z,41.70
2023-01-25T07:53:04.172Z,40.42
2023-01-25T07:55:31.198Z,43.90
2023-01-25T07:57:57.940Z,40.92
2023-01-25T08:00:25.127Z,43.00
2023-01-25T08:02:52.620Z,48.22
2023-01-25T08:05:19.881Z,40.83
2023-01-25T08:07:47.211Z,45.95
2023-01-25T08:10:14.075Z,45.50
2023-01-25T08:12:45.773Z,40.95
2023-01-25T08:15:14.054Z,38.85
2023-01-25T08:17:40.880Z,47.70
2023-01-25T08:20:08.966Z,40.97
2023-01-25T08:22:35.907Z,47.42
2023-01-25T08:25:03.890Z,40.42
2023-01-25T08:27:30.606Z,39.97
2023-01-25T08:29:57.321Z,45.72
2023-01-25T08:32:24.064Z,40.78
2023-01-25T08:34:50.750Z,40.75
2023-01-25T08:37:17.408Z,41.45
2023-01-25T08:39:44.120Z,45.17
2023-01-25T08:44:37.214Z,42.50
2023-01-25T08:47:03.939Z,39.30
2023-01-25T08:49:31.273Z,42.80
2023-01-25T08:51:58.649Z,41.50
2023-01-25T08:54:25.709Z,44.83
2023-01-25T08:56:52.571Z,42.97
2023-01-25T08:59:19.439Z,39.58
2023-01-25T09:01:46.115Z,39.40
2023-01-25T09:04:12.744Z,36.63
2023-01-25T09:06:39.413Z,37.70
2023-01-25T09:09:06.470Z,41.13
2023-01-25T09:11:35.046Z,36.30
2023-01-25T09:14:01.713Z,38.88
2023-01-25T09:16:29.407Z,41.10
2023-01-25T09:19:02.410Z,37.25
2023-01-25T09:21:30.085Z,39.58
2023-01-25T09:24:05.934Z,40.53
2023-01-25T09:26:34.800Z,37.38
2023-01-25T09:29:01.610Z,42.55
2023-01-25T09:31:29.637Z,41.97
2023-01-25T09:33:57.375Z,43.67
2023-01-25T09:36:24.076Z,36.20
2023-01-25T09:38:50.813Z,38.13
2023-01-25T09:41:56.265Z,40.75
2023-01-25T09:44:45.919Z,40.05
2023-01-25T09:47:25.715Z,34.22
2023-01-25T09:52:56.166Z,38.75
2023-01-25T09:55:27.945Z,39.90
2023-01-25T09:57:57.033Z,37.08
2023-01-25T10:00:55.484Z,42.42
2023-01-25T10:03:45.564Z,36.97
2023-01-25T10:06:14.439Z,38.22
2023-01-25T10:08:43.818Z,39.00
2023-01-25T10:11:11.660Z,38.88
2023-01-25T10:13:38.310Z,39.22
2023-01-25T10:16:17.700Z,34.13
2023-01-25T10:18:59.439Z,29.73
2023-01-25T10:21:32.572Z,34.60
2023-01-25T10:26:42.547Z,30.98
2023-01-25T10:29:12.726Z,34.08
2023-01-25T10:31:53.391Z,34.28
2023-01-25T10:34:26.488Z,33.53
2023-01-25T10:37:01.612Z,31.42
2023-01-25T10:39:32.870Z,33.65
2023-01-25T10:42:10.084Z,38.83
2023-01-25T10:44:37.231Z,40.85
2023-01-25T10:47:03.855Z,40.67
2023-01-25T10:49:39.866Z,38.50
2023-01-25T10:52:14.968Z,38.97
2023-01-25T10:54:41.938Z,37.92
2023-01-25T10:57:12.772Z,35.80
2023-01-25T10:59:39.443Z,35.88
2023-01-25T11:02:12.748Z,30.13
2023-01-25T11:04:40.149Z,33.63
2023-01-25T11:07:11.678Z,31.63
2023-01-25T11:09:39.899Z,33.55
2023-01-25T11:12:11.710Z,33.63
2023-01-25T11:14:38.642Z,32.25
2023-01-25T11:17:06.618Z,30.48
2023-01-25T11:19:34.909Z,33.10
2023-01-25T11:22:06.896Z,34.03
2023-01-25T11:24:35.761Z,37.05
2023-01-25T11:27:11.705Z,25.95
2023-01-25T11:29:38.475Z,31.63
2023-01-25T11:32:11.883Z,37.47
2023-01-25T11:34:38.496Z,32.60
2023-01-25T11:37:11.719Z,30.83
2023-01-25T11:39:46.545Z,31.48
2023-01-25T11:42:38.083Z,33.55
2023-01-25T11:45:12.801Z,34.40
2023-01-25T11:47:55.164Z,33.90
2023-01-25T11:50:24.729Z,31.55
2023-01-25T11:53:12.651Z,32.58
2023-01-25T11:55:48.599Z,33.30
2023-01-25T11:58:33.998Z,35.25
2023-01-25T12:01:12.788Z,29.25
2023-01-25T12:04:00.911Z,36.97
2023-01-25T12:06:36.287Z,32.78
2023-01-25T12:09:12.687Z,32.10
2023-01-25T12:12:06.925Z,32.30
2023-01-25T12:14:48.824Z,30.80
2023-01-25T12:17:21.471Z,26.08
2023-01-25T12:20:10.553Z,28.98
2023-01-25T12:22:39.999Z,32.60
2023-01-25T12:28:03.732Z,23.83
2023-01-25T12:30:49.567Z,33.90
2023-01-25T12:33:34.062Z,28.80
2023-01-25T12:36:13.256Z,30.48
2023-01-25T12:39:06.854Z,28.23
2023-01-25T12:42:04.645Z,31.23
2023-01-25T12:44:37.352Z,36.55
2023-01-25T12:49:53.950Z,31.70
2023-01-25T12:52:27.346Z,32.10
2023-01-25T12:55:00.529Z,32.30
2023-01-25T12:57:36.062Z,31.42
2023-01-25T13:00:14.167Z,34.25
2023-01-25T13:02:59.274Z,35.00
2023-01-25T13:05:37.840Z,38.35
2023-01-25T13:08:15.833Z,37.08
2023-01-25T13:10:52.924Z,37.70
2023-01-25T13:13:22.462Z,37.33
2023-01-25T13:15:49.245Z,34.78
2023-01-25T13:18:25.052Z,36.30
2023-01-25T13:20:54.256Z,33.97
2023-01-25T13:23:35.260Z,31.95
2023-01-25T13:26:12.809Z,30.90
2023-01-25T13:28:46.764Z,39.70
2023-01-25T13:31:51.999Z,37.85
2023-01-25T13:34:42.567Z,37.55
2023-01-25T13:37:11.802Z,36.03
2023-01-25T13:39:38.660Z,32.78
2023-01-25T13:42:12.771Z,35.10
2023-01-25T13:44:45.386Z,32.20
2023-01-25T13:47:17.087Z,39.33
2023-01-25T13:49:54.194Z,36.85
2023-01-25T13:52:24.791Z,33.28
2023-01-25T13:54:56.514Z,30.60
2023-01-25T13:57:32.240Z,36.65
2023-01-25T14:00:10.619Z,30.45
2023-01-25T14:02:39.661Z,30.98
2023-01-25T14:05:07.694Z,34.75
2023-01-25T14:07:37.174Z,31.70
2023-01-25T14:10:12.904Z,36.70
2023-01-25T14:12:45.644Z,32.30
2023-01-25T14:15:32.570Z,34.75
2023-01-25T14:20:37.258Z,33.10
2023-01-25T14:23:05.618Z,35.13
2023-01-25T14:25:33.685Z,36.13
2023-01-25T14:28:02.654Z,30.63
2023-01-25T14:30:32.706Z,39.22
2023-01-25T14:33:02.578Z,34.47
2023-01-25T14:35:43.098Z,29.20
2023-01-25T14:38:27.265Z,37.38
2023-01-25T14:40:57.672Z,35.45
2023-01-25T14:43:25.724Z,32.00
2023-01-25T14:45:53.601Z,36.10
2023-01-25T14:48:37.478Z,35.75
2023-01-25T14:51:10.370Z,31.67
2023-01-25T14:53:41.260Z,31.40
2023-01-25T14:56:11.933Z,30.38
2023-01-25T14:58:43.216Z,36.17
2023-01-25T15:01:12.912Z,37.75
2023-01-25T15:03:44.880Z,38.72
2023-01-25T15:06:12.000Z,36.95
2023-01-25T15:08:41.013Z,34.78
2023-01-25T15:11:31.548Z,38.08
2023-01-25T15:14:12.934Z,37.92
2023-01-25T15:16:42.120Z,34.45
2023-01-25T15:19:14.075Z,37.55
2023-01-25T15:21:41.052Z,37.58
2023-01-25T15:24:12.958Z,36.58
2023-01-25T15:26:40.357Z,34.03
2023-01-25T15:31:38.705Z,41.78
2023-01-25T15:34:08.400Z,32.80
2023-01-25T15:36:35.397Z,38.90
2023-01-25T15:39:02.302Z,36.60
2023-01-25T15:41:29.142Z,40.97
2023-01-25T15:43:56.245Z,42.95
2023-01-25T15:46:26.866Z,45.10
2023-01-25T15:48:54.213Z,43.65
2023-01-25T15:51:21.804Z,38.83
2023-01-25T15:53:48.600Z,37.85
2023-01-25T15:56:28.072Z,39.58
2023-01-25T15:58:57.832Z,43.25
2023-01-25T16:01:27.556Z,43.38
2023-01-25T16:03:59.479Z,35.17
2023-01-25T16:06:38.218Z,41.90
2023-01-25T16:09:13.003Z,39.10
2023-01-25T16:11:40.210Z,40.95
2023-01-25T16:14:07.065Z,43.53
2023-01-25T16:16:39.721Z,47.75
2023-01-25T16:19:06.645Z,38.92
2023-01-25T16:21:33.378Z,37.85
2023-01-25T16:24:00.909Z,35.72
2023-01-25T16:26:29.530Z,39.15
2023-01-25T16:28:57.098Z,42.10
2023-01-25T16:31:32.919Z,40.22
2023-01-25T16:34:01.141Z,40.15
2023-01-25T16:36:30.422Z,36.25
2023-01-25T16:39:07.708Z,42.75
2023-01-25T16:41:34.473Z,38.95
2023-01-25T16:44:01.149Z,36.40
2023-01-25T16:46:28.083Z,40.35
2023-01-25T16:48:57.482Z,38.58
2023-01-25T16:51:28.530Z,43.25
2023-01-25T16:53:57.149Z,38.35
2023-01-25T16:56:35.397Z,39.53
2023-01-25T16:59:05.337Z,35.65
2023-01-25T17:01:32.909Z,37.53
2023-01-25T17:04:00.108Z,38.42
2023-01-25T17:06:30.136Z,42.58
2023-01-25T17:09:09.447Z,40.70
2023-01-25T17:11:38.685Z,35.90
2023-01-25T17:14:05.929Z,38.78
2023-01-25T17:16:33.147Z,36.50
2023-01-25T17:21:37.452Z,42.60
2023-01-25T17:24:04.720Z,41.80
2023-01-25T17:26:32.329Z,37.83
2023-01-25T17:29:04.805Z,36.83
2023-01-25T17:31:34.918Z,40.08
2023-01-25T17:34:12.851Z,38.28
2023-01-25T17:36:40.199Z,38.15
2023-01-25T17:39:07.917Z,36.08
2023-01-25T17:41:34.900Z,44.13
2023-01-25T17:44:02.177Z,37.67
2023-01-25T17:46:33.422Z,42.03
2023-01-25T17:49:02.425Z,39.53
2023-01-25T17:51:31.074Z,38.35
2023-01-25T17:53:58.309Z,42.22
2023-01-25T17:56:25.994Z,43.38
2023-01-25T17:58:53.361Z,41.25
2023-01-25T18:01:25.481Z,44.75
2023-01-25T18:03:54.219Z,39.55
2023-01-25T18:06:26.210Z,41.83
2023-01-25T18:08:55.685Z,40.75
2023-01-25T18:11:26.216Z,42.03
2023-01-25T18:13:56.098Z,39.38
2023-01-25T18:16:25.686Z,38.97
2023-01-25T18:18:54.588Z,39.90
2023-01-25T18:21:25.322Z,39.15
2023-01-25T18:23:57.222Z,40.43
2023-01-25T18:26:27.414Z,36.65
2023-01-25T18:28:58.308Z,42.08
2023-01-25T18:31:25.514Z,37.70
2023-01-25T18:33:52.995Z,40.28
2023-01-25T18:36:20.716Z,41.15
2023-01-25T18:38:47.422Z,45.30
2023-01-25T18:41:15.801Z,41.08
2023-01-25T18:43:42.479Z,40.67
2023-01-25T18:48:37.865Z,45.60
2023-01-25T18:51:18.004Z,43.05
2023-01-25T18:53:47.918Z,41.72
2023-01-25T18:56:19.928Z,48.40
2023-01-25T18:58:51.254Z,40.92
2023-01-25T19:01:20.317Z,43.60
2023-01-25T19:03:52.066Z,43.97
2023-01-25T19:06:22.308Z,39.97
2023-01-25T19:08:54.608Z,38.57
2023-01-25T19:11:24.388Z,42.53
2023-01-25T19:13:51.491Z,44.00
2023-01-25T19:16:21.371Z,42.78
2023-01-25T19:18:53.681Z,43.25
2023-01-25T19:21:28.378Z,43.33
2023-01-25T19:23:59.283Z,48.88
2023-01-25T19:26:26.752Z,48.35
2023-01-25T19:29:00.361Z,49.28
2023-01-25T19:31:32.772Z,44.40
2023-01-25T19:34:07.945Z,45.35
2023-01-25T19:36:37.677Z,44.88
2023-01-25T19:41:39.118Z,44.70
2023-01-25T19:44:10.076Z,47.75
2023-01-25T19:46:39.396Z,46.97
2023-01-25T19:49:09.353Z,48.00
2023-01-25T19:51:38.809Z,49.55
2023-01-25T19:54:08.018Z,48.92
2023-01-25T19:56:40.516Z,46.92
2023-01-25T20:01:46.712Z,50.28
2023-01-25T20:04:19.963Z,49.53
2023-01-25T20:06:48.145Z,48.95
2023-01-25T20:09:19.205Z,47.53
2023-01-25T20:11:47.665Z,46.45
2023-01-25T20:14:17.705Z,47.53
2023-01-25T20:16:44.553Z,46.70
2023-01-25T20:19:13.425Z,47.15
2023-01-25T20:21:40.257Z,45.60
2023-01-25T20:24:09.967Z,43.00
2023-01-25T20:26:39.546Z,55.90
2023-01-25T20:29:07.685Z,47.78
2023-01-25T20:31:46.076Z,52.45
2023-01-25T20:34:19.280Z,45.00
2023-01-25T20:36:47.282Z,45.70
2023-01-25T20:39:19.968Z,44.25
2023-01-25T20:41:47.543Z,49.80
2023-01-25T20:44:17.295Z,50.53
2023-01-25T20:46:44.460Z,43.85
2023-01-25T20:49:13.009Z,48.00
2023-01-25T20:51:43.037Z,51.83
2023-01-25T20:56:37.828Z,48.60
2023-01-25T20:59:06.340Z,48.03
2023-01-25T21:01:37.116Z,45.65
2023-01-25T21:04:06.014Z,46.95
2023-01-25T21:06:35.344Z,45.15
2023-01-25T21:09:03.140Z,48.65
2023-01-25T21:11:30.285Z,44.47
2023-01-25T21:13:58.528Z,48.10
2023-01-25T21:16:25.551Z,53.50
2023-01-25T21:18:55.251Z,50.05
2023-01-25T21:21:29.935Z,44.65
2023-01-25T21:24:00.098Z,49.53
2023-01-25T21:26:29.548Z,49.65
2023-01-25T21:28:56.646Z,45.60
2023-01-25T21:31:27.545Z,52.58
2023-01-25T21:33:56.547Z,43.50
2023-01-25T21:36:23.639Z,49.55
2023-01-25T21:39:01.653Z,52.40
2023-01-25T21:41:30.656Z,50.88
2023-01-25T21:44:12.957Z,48.22
2023-01-25T21:46:52.311Z,49.97
2023-01-25T21:49:45.916Z,55.05
2023-01-25T21:52:12.632Z,49.67
2023-01-25T21:54:39.431Z,47.17
2023-01-25T21:59:38.225Z,51.85
2023-01-25T22:02:06.924Z,52.67
2023-01-25T22:04:36.443Z,53.00
2023-01-25T22:07:04.571Z,55.72
2023-01-25T22:09:31.363Z,49.33
2023-01-25T22:11:58.530Z,49.60
2023-01-25T22:14:25.308Z,57.28
2023-01-25T22:16:52.630Z,51.40
2023-01-25T22:19:19.945Z,49.97
2023-01-25T22:21:49.451Z,58.45
2023-01-25T22:24:16.477Z,53.97
2023-01-25T22:27:05.461Z,54.00
2023-01-25T22:29:35.258Z,56.38
2023-01-25T22:32:02.513Z,49.55
2023-01-25T22:34:29.182Z,53.03
2023-01-25T22:36:55.881Z,49.83
2023-01-25T22:39:25.338Z,49.88
2023-01-25T22:41:52.334Z,51.53
2023-01-25T22:44:19.018Z,46.08
2023-01-25T22:46:46.526Z,50.28
2023-01-25T22:49:13.178Z,56.03
2023-01-25T22:51:40.272Z,51.45
2023-01-25T22:54:07.169Z,54.15
2023-01-25T22:56:34.567Z,51.30
2023-01-25T22:59:01.823Z,52.80
2023-01-25T23:01:31.219Z,53.40
2023-01-25T23:03:58.183Z,54.60
2023-01-25T23:06:27.279Z,57.58
2023-01-25T23:08:56.333Z,54.08
2023-01-25T23:11:26.444Z,48.03
2023-01-25T23:16:37.770Z,55.50
2023-01-25T23:19:05.618Z,55.22
2023-01-25T23:21:32.694Z,54.75
2023-01-25T23:24:01.086Z,57.50
2023-01-25T23:26:29.854Z,58.70
2023-01-25T23:28:57.965Z,44.35
2023-01-25T23:31:26.319Z,54.15
2023-01-25T23:33:56.043Z,50.53
2023-01-25T23:36:26.116Z,47.88
2023-01-25T23:38:55.241Z,50.72
2023-01-25T23:41:23.820Z,45.92
2023-01-25T23:43:56.538Z,52.63
2023-01-25T23:46:28.500Z,50.45
2023-01-25T23:48:55.443Z,54.60
2023-01-25T23:51:22.305Z,44.45
2023-01-25T23:53:49.046Z,53.75
2023-01-25T23:56:20.995Z,47.95
2023-01-25T23:58:49.102Z,53.63
